sensor_id;sensor_type;location;lat;lon;timestamp;P1;durP1;ratioP1;P2;durP2;ratioP2
30173;SDS011;16985;50.814;8.530;2023-11-19T00:01:06;1.52;;;1.38;;
30173;SDS011;16985;50.814;8.530;2023-11-19T00:03:41;1.40;;;1.30;;
30173;SDS011;16985;50.814;8.530;2023-11-19T00:06:07;2.08;;;1.45;;
30173;SDS011;16985;50.814;8.530;2023-11-19T00:08:35;2.38;;;1.40;;
30173;SDS011;16985;50.814;8.530;2023-11-19T00:11:01;2.10;;;1.58;;
30173;SDS011;16985;50.814;8.530;2023-11-19T00:13:28;1.50;;;1.40;;
30173;SDS011;16985;50.814;8.530;2023-11-19T00:15:54;1.27;;;1.17;;
30173;SDS011;16985;50.814;8.530;2023-11-19T00:18:29;1.30;;;1.20;;
30173;SDS011;16985;50.814;8.530;2023-11-19T00:20:55;1.75;;;1.65;;
30173;SDS011;16985;50.814;8.530;2023-11-19T00:23:21;2.53;;;1.40;;
30173;SDS011;16985;50.814;8.530;2023-11-19T00:25:48;1.58;;;1.48;;
30173;SDS011;16985;50.814;8.530;2023-11-19T00:28:14;1.77;;;1.40;;
30173;SDS011;16985;50.814;8.530;2023-11-19T00:30:40;2.15;;;1.88;;
30173;SDS011;16985;50.814;8.530;2023-11-19T00:33:06;1.55;;;1.45;;
30173;SDS011;16985;50.814;8.530;2023-11-19T00:35:32;1.70;;;1.60;;
30173;SDS011;16985;50.814;8.530;2023-11-19T00:37:58;1.90;;;1.70;;
30173;SDS011;16985;50.814;8.530;2023-11-19T00:40:25;3.97;;;1.80;;
30173;SDS011;16985;50.814;8.530;2023-11-19T00:42:51;1.92;;;1.60;;
30173;SDS011;16985;50.814;8.530;2023-11-19T00:45:17;2.88;;;1.65;;
30173;SDS011;16985;50.814;8.530;2023-11-19T00:47:43;2.22;;;2.03;;
30173;SDS011;16985;50.814;8.530;2023-11-19T00:50:09;5.32;;;2.17;;
30173;SDS011;16985;50.814;8.530;2023-11-19T00:52:36;1.77;;;1.60;;
30173;SDS011;16985;50.814;8.530;2023-11-19T00:55:03;3.00;;;1.90;;
30173;SDS011;16985;50.814;8.530;2023-11-19T00:57:31;5.80;;;1.92;;
30173;SDS011;16985;50.814;8.530;2023-11-19T01:00:00;2.85;;;2.00;;
30173;SDS011;16985;50.814;8.530;2023-11-19T01:02:31;2.15;;;1.98;;
30173;SDS011;16985;50.814;8.530;2023-11-19T01:04:59;2.20;;;2.00;;
30173;SDS011;16985;50.814;8.530;2023-11-19T01:07:25;2.22;;;1.55;;
30173;SDS011;16985;50.814;8.530;2023-11-19T01:09:52;2.28;;;1.67;;
30173;SDS011;16985;50.814;8.530;2023-11-19T01:12:19;1.70;;;1.60;;
30173;SDS011;16985;50.814;8.530;2023-11-19T01:14:45;1.70;;;1.50;;
30173;SDS011;16985;50.814;8.530;2023-11-19T01:17:11;1.60;;;1.50;;
30173;SDS011;16985;50.814;8.530;2023-11-19T01:19:37;2.85;;;1.55;;
30173;SDS011;16985;50.814;8.530;2023-11-19T01:22:03;2.15;;;1.67;;
30173;SDS011;16985;50.814;8.530;2023-11-19T01:24:30;1.88;;;1.60;;
30173;SDS011;16985;50.814;8.530;2023-11-19T01:26:56;1.70;;;1.58;;
30173;SDS011;16985;50.814;8.530;2023-11-19T01:29:23;1.83;;;1.73;;
30173;SDS011;16985;50.814;8.530;2023-11-19T01:31:49;2.53;;;1.45;;
30173;SDS011;16985;50.814;8.530;2023-11-19T01:34:18;2.15;;;1.95;;
30173;SDS011;16985;50.814;8.530;2023-11-19T01:36:46;3.83;;;1.98;;
30173;SDS011;16985;50.814;8.530;2023-11-19T01:39:14;2.03;;;1.52;;
30173;SDS011;16985;50.814;8.530;2023-11-19T01:41:41;5.78;;;2.88;;
30173;SDS011;16985;50.814;8.530;2023-11-19T01:44:07;2.10;;;1.73;;
30173;SDS011;16985;50.814;8.530;2023-11-19T01:46:33;2.00;;;1.80;;
30173;SDS011;16985;50.814;8.530;2023-11-19T01:49:00;2.80;;;2.50;;
30173;SDS011;16985;50.814;8.530;2023-11-19T01:51:28;2.38;;;2.17;;
30173;SDS011;16985;50.814;8.530;2023-11-19T01:53:54;2.67;;;2.25;;
30173;SDS011;16985;50.814;8.530;2023-11-19T01:56:22;2.38;;;2.15;;
30173;SDS011;16985;50.814;8.530;2023-11-19T01:58:50;2.10;;;1.92;;
30173;SDS011;16985;50.814;8.530;2023-11-19T02:01:18;2.63;;;2.20;;
30173;SDS011;16985;50.814;8.530;2023-11-19T02:03:44;2.30;;;2.10;;
30173;SDS011;16985;50.814;8.530;2023-11-19T02:06:12;2.80;;;2.50;;
30173;SDS011;16985;50.814;8.530;2023-11-19T02:08:38;2.38;;;2.17;;
30173;SDS011;16985;50.814;8.530;2023-11-19T02:11:05;2.53;;;2.33;;
30173;SDS011;16985;50.814;8.530;2023-11-19T02:13:34;2.38;;;2.17;;
30173;SDS011;16985;50.814;8.530;2023-11-19T02:16:03;2.63;;;2.08;;
30173;SDS011;16985;50.814;8.530;2023-11-19T02:18:30;2.13;;;1.92;;
30173;SDS011;16985;50.814;8.530;2023-11-19T02:20:56;2.22;;;2.03;;
30173;SDS011;16985;50.814;8.530;2023-11-19T02:26:14;2.42;;;2.22;;
30173;SDS011;16985;50.814;8.530;2023-11-19T02:28:54;5.20;;;2.28;;
30173;SDS011;16985;50.814;8.530;2023-11-19T02:31:21;2.78;;;2.45;;
30173;SDS011;16985;50.814;8.530;2023-11-19T02:33:48;2.70;;;2.50;;
30173;SDS011;16985;50.814;8.530;2023-11-19T02:36:15;2.53;;;2.33;;
30173;SDS011;16985;50.814;8.530;2023-11-19T02:38:42;2.40;;;2.20;;
30173;SDS011;16985;50.814;8.530;2023-11-19T02:41:08;2.17;;;1.98;;
30173;SDS011;16985;50.814;8.530;2023-11-19T02:43:36;2.35;;;2.15;;
30173;SDS011;16985;50.814;8.530;2023-11-19T02:46:04;2.05;;;1.90;;
30173;SDS011;16985;50.814;8.530;2023-11-19T02:48:34;2.15;;;1.95;;
30173;SDS011;16985;50.814;8.530;2023-11-19T02:51:04;1.75;;;1.65;;
30173;SDS011;16985;50.814;8.530;2023-11-19T02:53:34;1.70;;;1.60;;
30173;SDS011;16985;50.814;8.530;2023-11-19T02:56:02;1.50;;;1.33;;
30173;SDS011;16985;50.814;8.530;2023-11-19T02:58:45;1.45;;;1.27;;
30173;SDS011;16985;50.814;8.530;2023-11-19T03:01:12;2.55;;;1.30;;
30173;SDS011;16985;50.814;8.530;2023-11-19T03:03:48;1.30;;;1.20;;
30173;SDS011;16985;50.814;8.530;2023-11-19T03:06:19;1.23;;;1.13;;
30173;SDS011;16985;50.814;8.530;2023-11-19T03:08:47;1.33;;;1.23;;
30173;SDS011;16985;50.814;8.530;2023-11-19T03:11:13;1.33;;;1.15;;
30173;SDS011;16985;50.814;8.530;2023-11-19T03:13:39;2.42;;;1.35;;
30173;SDS011;16985;50.814;8.530;2023-11-19T03:16:06;1.73;;;1.20;;
30173;SDS011;16985;50.814;8.530;2023-11-19T03:18:33;1.73;;;1.57;;
30173;SDS011;16985;50.814;8.530;2023-11-19T03:20:59;1.55;;;1.25;;
30173;SDS011;16985;50.814;8.530;2023-11-19T03:23:25;1.73;;;1.40;;
30173;SDS011;16985;50.814;8.530;2023-11-19T03:25:54;1.90;;;1.45;;
30173;SDS011;16985;50.814;8.530;2023-11-19T03:28:21;2.08;;;1.50;;
30173;SDS011;16985;50.814;8.530;2023-11-19T03:30:47;1.70;;;1.38;;
30173;SDS011;16985;50.814;8.530;2023-11-19T03:33:13;2.50;;;1.33;;
30173;SDS011;16985;50.814;8.530;2023-11-19T03:35:40;1.30;;;1.20;;
30173;SDS011;16985;50.814;8.530;2023-11-19T03:38:06;1.65;;;1.35;;
30173;SDS011;16985;50.814;8.530;2023-11-19T03:40:32;1.50;;;1.40;;
30173;SDS011;16985;50.814;8.530;2023-11-19T03:42:58;1.40;;;1.30;;
30173;SDS011;16985;50.814;8.530;2023-11-19T03:45:24;1.50;;;1.40;;
30173;SDS011;16985;50.814;8.530;2023-11-19T03:47:51;1.50;;;1.38;;
30173;SDS011;16985;50.814;8.530;2023-11-19T03:50:17;2.83;;;1.65;;
30173;SDS011;16985;50.814;8.530;2023-11-19T03:52:45;1.33;;;1.23;;
30173;SDS011;16985;50.814;8.530;2023-11-19T03:55:13;2.40;;;1.30;;
30173;SDS011;16985;50.814;8.530;2023-11-19T03:57:39;2.83;;;1.20;;
30173;SDS011;16985;50.814;8.530;2023-11-19T04:00:05;1.60;;;1.42;;
30173;SDS011;16985;50.814;8.530;2023-11-19T04:02:39;1.95;;;1.40;;
30173;SDS011;16985;50.814;8.530;2023-11-19T04:05:07;4.20;;;1.40;;
30173;SDS011;16985;50.814;8.530;2023-11-19T04:07:33;2.50;;;1.42;;
30173;SDS011;16985;50.814;8.530;2023-11-19T04:09:59;5.20;;;1.60;;
30173;SDS011;16985;50.814;8.530;2023-11-19T04:12:26;2.05;;;1.38;;
30173;SDS011;16985;50.814;8.530;2023-11-19T04:14:52;2.22;;;1.40;;
30173;SDS011;16985;50.814;8.530;2023-11-19T04:17:18;1.60;;;1.27;;
30173;SDS011;16985;50.814;8.530;2023-11-19T04:19:44;2.80;;;1.50;;
30173;SDS011;16985;50.814;8.530;2023-11-19T04:22:10;6.20;;;2.00;;
30173;SDS011;16985;50.814;8.530;2023-11-19T04:24:36;6.18;;;1.52;;
30173;SDS011;16985;50.814;8.530;2023-11-19T04:27:04;4.10;;;1.70;;
30173;SDS011;16985;50.814;8.530;2023-11-19T04:29:31;6.50;;;1.20;;
30173;SDS011;16985;50.814;8.530;2023-11-19T04:31:57;3.63;;;1.63;;
30173;SDS011;16985;50.814;8.530;2023-11-19T04:36:51;5.18;;;2.00;;
30173;SDS011;16985;50.814;8.530;2023-11-19T04:39:17;3.72;;;1.63;;
30173;SDS011;16985;50.814;8.530;2023-11-19T04:41:50;3.67;;;1.33;;
30173;SDS011;16985;50.814;8.530;2023-11-19T04:44:18;3.92;;;1.52;;
30173;SDS011;16985;50.814;8.530;2023-11-19T04:46:45;4.28;;;1.50;;
30173;SDS011;16985;50.814;8.530;2023-11-19T04:49:11;6.75;;;1.80;;
30173;SDS011;16985;50.814;8.530;2023-11-19T04:51:44;3.58;;;1.55;;
30173;SDS011;16985;50.814;8.530;2023-11-19T04:54:12;4.22;;;1.83;;
30173;SDS011;16985;50.814;8.530;2023-11-19T04:56:38;2.22;;;1.52;;
30173;SDS011;16985;50.814;8.530;2023-11-19T04:59:05;4.60;;;1.77;;
30173;SDS011;16985;50.814;8.530;2023-11-19T05:01:32;3.80;;;1.85;;
30173;SDS011;16985;50.814;8.530;2023-11-19T05:03:59;10.68;;;2.00;;
30173;SDS011;16985;50.814;8.530;2023-11-19T05:06:29;6.97;;;1.65;;
30173;SDS011;16985;50.814;8.530;2023-11-19T05:08:56;5.50;;;1.83;;
30173;SDS011;16985;50.814;8.530;2023-11-19T05:11:26;6.53;;;2.03;;
30173;SDS011;16985;50.814;8.530;2023-11-19T05:13:53;7.80;;;1.92;;
30173;SDS011;16985;50.814;8.530;2023-11-19T05:16:19;5.65;;;1.58;;
30173;SDS011;16985;50.814;8.530;2023-11-19T05:18:46;3.25;;;1.67;;
30173;SDS011;16985;50.814;8.530;2023-11-19T05:21:13;11.13;;;2.17;;
30173;SDS011;16985;50.814;8.530;2023-11-19T05:23:39;6.05;;;1.63;;
30173;SDS011;16985;50.814;8.530;2023-11-19T05:26:07;6.55;;;2.17;;
30173;SDS011;16985;50.814;8.530;2023-11-19T05:28:34;9.95;;;2.10;;
30173;SDS011;16985;50.814;8.530;2023-11-19T05:31:00;6.60;;;2.25;;
30173;SDS011;16985;50.814;8.530;2023-11-19T05:33:26;11.15;;;2.00;;
30173;SDS011;16985;50.814;8.530;2023-11-19T05:35:52;6.88;;;2.25;;
30173;SDS011;16985;50.814;8.530;2023-11-19T05:38:18;5.05;;;2.30;;
30173;SDS011;16985;50.814;8.530;2023-11-19T05:40:44;14.52;;;2.20;;
30173;SDS011;16985;50.814;8.530;2023-11-19T05:43:10;6.97;;;1.92;;
30173;SDS011;16985;50.814;8.530;2023-11-19T05:45:36;6.85;;;2.30;;
30173;SDS011;16985;50.814;8.530;2023-11-19T05:48:02;8.27;;;2.75;;
30173;SDS011;16985;50.814;8.530;2023-11-19T05:50:29;12.82;;;3.00;;
30173;SDS011;16985;50.814;8.530;2023-11-19T05:52:56;12.80;;;3.03;;
30173;SDS011;16985;50.814;8.530;2023-11-19T05:55:22;9.48;;;1.98;;
30173;SDS011;16985;50.814;8.530;2023-11-19T05:57:49;16.17;;;2.95;;
30173;SDS011;16985;50.814;8.530;2023-11-19T06:00:17;6.45;;;2.33;;
30173;SDS011;16985;50.814;8.530;2023-11-19T06:02:43;11.80;;;2.63;;
30173;SDS011;16985;50.814;8.530;2023-11-19T06:05:10;10.02;;;2.65;;
30173;SDS011;16985;50.814;8.530;2023-11-19T06:07:36;12.45;;;2.95;;
30173;SDS011;16985;50.814;8.530;2023-11-19T06:10:04;12.88;;;3.72;;
30173;SDS011;16985;50.814;8.530;2023-11-19T06:12:33;7.78;;;2.70;;
30173;SDS011;16985;50.814;8.530;2023-11-19T06:15:03;9.82;;;2.45;;
30173;SDS011;16985;50.814;8.530;2023-11-19T06:17:31;10.13;;;2.22;;
30173;SDS011;16985;50.814;8.530;2023-11-19T06:19:57;7.35;;;2.78;;
30173;SDS011;16985;50.814;8.530;2023-11-19T06:22:23;19.40;;;2.33;;
30173;SDS011;16985;50.814;8.530;2023-11-19T06:24:49;18.10;;;2.83;;
30173;SDS011;16985;50.814;8.530;2023-11-19T06:27:15;10.07;;;2.25;;
30173;SDS011;16985;50.814;8.530;2023-11-19T06:29:41;18.25;;;2.83;;
30173;SDS011;16985;50.814;8.530;2023-11-19T06:32:07;19.90;;;3.53;;
30173;SDS011;16985;50.814;8.530;2023-11-19T06:34:34;8.20;;;2.42;;
30173;SDS011;16985;50.814;8.530;2023-11-19T06:37:00;12.77;;;3.35;;
30173;SDS011;16985;50.814;8.530;2023-11-19T06:39:29;25.45;;;6.80;;
30173;SDS011;16985;50.814;8.530;2023-11-19T06:41:56;18.98;;;6.65;;
30173;SDS011;16985;50.814;8.530;2023-11-19T06:44:22;13.88;;;2.80;;
30173;SDS011;16985;50.814;8.530;2023-11-19T06:46:50;20.52;;;3.25;;
30173;SDS011;16985;50.814;8.530;2023-11-19T06:49:16;19.17;;;3.65;;
30173;SDS011;16985;50.814;8.530;2023-11-19T06:51:42;12.00;;;2.83;;
30173;SDS011;16985;50.814;8.530;2023-11-19T06:54:09;14.10;;;3.20;;
30173;SDS011;16985;50.814;8.530;2023-11-19T06:56:35;10.98;;;2.75;;
30173;SDS011;16985;50.814;8.530;2023-11-19T06:59:02;21.25;;;3.70;;
30173;SDS011;16985;50.814;8.530;2023-11-19T07:01:28;13.23;;;3.13;;
30173;SDS011;16985;50.814;8.530;2023-11-19T07:04:00;13.95;;;3.13;;
30173;SDS011;16985;50.814;8.530;2023-11-19T07:06:33;16.33;;;3.30;;
30173;SDS011;16985;50.814;8.530;2023-11-19T07:09:00;12.65;;;3.25;;
30173;SDS011;16985;50.814;8.530;2023-11-19T07:11:35;15.27;;;2.95;;
30173;SDS011;16985;50.814;8.530;2023-11-19T07:14:05;20.73;;;3.72;;
30173;SDS011;16985;50.814;8.530;2023-11-19T07:16:32;30.92;;;4.75;;
30173;SDS011;16985;50.814;8.530;2023-11-19T07:19:05;19.92;;;5.43;;
30173;SDS011;16985;50.814;8.530;2023-11-19T07:21:31;20.05;;;3.58;;
30173;SDS011;16985;50.814;8.530;2023-11-19T07:24:04;17.33;;;3.28;;
30173;SDS011;16985;50.814;8.530;2023-11-19T07:26:32;21.33;;;3.65;;
30173;SDS011;16985;50.814;8.530;2023-11-19T07:28:58;19.40;;;3.10;;
30173;SDS011;16985;50.814;8.530;2023-11-19T07:31:27;23.00;;;4.72;;
30173;SDS011;16985;50.814;8.530;2023-11-19T07:33:53;20.75;;;3.67;;
30173;SDS011;16985;50.814;8.530;2023-11-19T07:36:19;19.38;;;3.67;;
30173;SDS011;16985;50.814;8.530;2023-11-19T07:38:45;15.98;;;3.22;;
30173;SDS011;16985;50.814;8.530;2023-11-19T07:41:12;18.88;;;5.10;;
30173;SDS011;16985;50.814;8.530;2023-11-19T07:43:39;17.65;;;3.70;;
30173;SDS011;16985;50.814;8.530;2023-11-19T07:46:10;27.08;;;4.70;;
30173;SDS011;16985;50.814;8.530;2023-11-19T07:48:38;17.23;;;3.63;;
30173;SDS011;16985;50.814;8.530;2023-11-19T07:51:05;14.90;;;3.70;;
30173;SDS011;16985;50.814;8.530;2023-11-19T07:53:31;22.40;;;3.72;;
30173;SDS011;16985;50.814;8.530;2023-11-19T07:55:58;14.23;;;3.47;;
30173;SDS011;16985;50.814;8.530;2023-11-19T07:58:25;28.33;;;6.18;;
30173;SDS011;16985;50.814;8.530;2023-11-19T08:00:52;24.20;;;4.60;;
30173;SDS011;16985;50.814;8.530;2023-11-19T08:03:18;19.20;;;4.25;;
30173;SDS011;16985;50.814;8.530;2023-11-19T08:05:45;20.20;;;4.40;;
30173;SDS011;16985;50.814;8.530;2023-11-19T08:08:11;18.83;;;3.70;;
30173;SDS011;16985;50.814;8.530;2023-11-19T08:10:37;22.70;;;4.07;;
30173;SDS011;16985;50.814;8.530;2023-11-19T08:13:05;25.27;;;5.43;;
30173;SDS011;16985;50.814;8.530;2023-11-19T08:15:32;14.10;;;5.35;;
30173;SDS011;16985;50.814;8.530;2023-11-19T08:17:59;27.33;;;3.85;;
30173;SDS011;16985;50.814;8.530;2023-11-19T08:20:25;21.23;;;3.83;;
30173;SDS011;16985;50.814;8.530;2023-11-19T08:22:51;14.38;;;3.88;;
30173;SDS011;16985;50.814;8.530;2023-11-19T08:25:17;19.77;;;4.15;;
30173;SDS011;16985;50.814;8.530;2023-11-19T08:27:43;17.27;;;3.85;;
30173;SDS011;16985;50.814;8.530;2023-11-19T08:30:09;21.23;;;3.53;;
30173;SDS011;16985;50.814;8.530;2023-11-19T08:32:36;20.10;;;3.88;;
30173;SDS011;16985;50.814;8.530;2023-11-19T08:35:02;10.95;;;2.88;;
30173;SDS011;16985;50.814;8.530;2023-11-19T08:37:29;22.58;;;4.97;;
30173;SDS011;16985;50.814;8.530;2023-11-19T08:39:55;14.93;;;3.88;;
30173;SDS011;16985;50.814;8.530;2023-11-19T08:42:21;18.83;;;4.07;;
30173;SDS011;16985;50.814;8.530;2023-11-19T08:44:50;19.77;;;4.13;;
30173;SDS011;16985;50.814;8.530;2023-11-19T08:47:19;19.70;;;3.83;;
30173;SDS011;16985;50.814;8.530;2023-11-19T08:49:47;18.05;;;4.18;;
30173;SDS011;16985;50.814;8.530;2023-11-19T08:52:20;16.52;;;3.60;;
30173;SDS011;16985;50.814;8.530;2023-11-19T08:54:46;26.88;;;4.70;;
30173;SDS011;16985;50.814;8.530;2023-11-19T08:57:12;24.83;;;3.85;;
30173;SDS011;16985;50.814;8.530;2023-11-19T08:59:39;22.73;;;5.57;;
30173;SDS011;16985;50.814;8.530;2023-11-19T09:02:08;16.08;;;3.50;;
30173;SDS011;16985;50.814;8.530;2023-11-19T09:04:34;24.00;;;4.95;;
30173;SDS011;16985;50.814;8.530;2023-11-19T09:07:01;19.55;;;3.88;;
30173;SDS011;16985;50.814;8.530;2023-11-19T09:09:28;28.42;;;4.05;;
30173;SDS011;16985;50.814;8.530;2023-11-19T09:11:55;22.92;;;6.72;;
30173;SDS011;16985;50.814;8.530;2023-11-19T09:14:21;17.95;;;4.20;;
30173;SDS011;16985;50.814;8.530;2023-11-19T09:16:51;24.13;;;4.75;;
30173;SDS011;16985;50.814;8.530;2023-11-19T09:19:18;28.13;;;7.40;;
30173;SDS011;16985;50.814;8.530;2023-11-19T09:21:44;25.00;;;4.10;;
30173;SDS011;16985;50.814;8.530;2023-11-19T09:24:10;22.67;;;4.18;;
30173;SDS011;16985;50.814;8.530;2023-11-19T09:26:36;22.63;;;3.92;;
30173;SDS011;16985;50.814;8.530;2023-11-19T09:29:05;28.33;;;4.28;;
30173;SDS011;16985;50.814;8.530;2023-11-19T09:31:33;26.00;;;4.18;;
30173;SDS011;16985;50.814;8.530;2023-11-19T09:34:00;21.40;;;4.90;;
30173;SDS011;16985;50.814;8.530;2023-11-19T09:36:26;18.63;;;3.35;;
30173;SDS011;16985;50.814;8.530;2023-11-19T09:38:52;17.05;;;3.95;;
30173;SDS011;16985;50.814;8.530;2023-11-19T09:41:18;12.30;;;3.08;;
30173;SDS011;16985;50.814;8.530;2023-11-19T09:43:44;16.27;;;3.15;;
30173;SDS011;16985;50.814;8.530;2023-11-19T09:46:12;16.27;;;3.45;;
30173;SDS011;16985;50.814;8.530;2023-11-19T09:48:40;11.55;;;3.10;;
30173;SDS011;16985;50.814;8.530;2023-11-19T09:51:08;16.48;;;3.28;;
30173;SDS011;16985;50.814;8.530;2023-11-19T09:53:36;19.98;;;3.90;;
30173;SDS011;16985;50.814;8.530;2023-11-19T09:56:03;23.60;;;3.65;;
30173;SDS011;16985;50.814;8.530;2023-11-19T09:58:31;17.57;;;3.70;;
30173;SDS011;16985;50.814;8.530;2023-11-19T10:00:58;19.33;;;4.57;;
30173;SDS011;16985;50.814;8.530;2023-11-19T10:03:32;19.43;;;5.33;;
30173;SDS011;16985;50.814;8.530;2023-11-19T10:06:09;16.83;;;3.05;;
30173;SDS011;16985;50.814;8.530;2023-11-19T10:08:39;13.07;;;3.10;;
30173;SDS011;16985;50.814;8.530;2023-11-19T10:11:07;18.65;;;3.70;;
30173;SDS011;16985;50.814;8.530;2023-11-19T10:13:35;20.95;;;4.05;;
30173;SDS011;16985;50.814;8.530;2023-11-19T10:16:09;24.65;;;3.80;;
30173;SDS011;16985;50.814;8.530;2023-11-19T10:18:38;20.48;;;4.95;;
30173;SDS011;16985;50.814;8.530;2023-11-19T10:21:12;21.60;;;4.00;;
30173;SDS011;16985;50.814;8.530;2023-11-19T10:24:15;21.55;;;3.88;;
30173;SDS011;16985;50.814;8.530;2023-11-19T10:26:35;29.42;;;4.85;;
30173;SDS011;16985;50.814;8.530;2023-11-19T10:29:02;23.50;;;4.83;;
30173;SDS011;16985;50.814;8.530;2023-11-19T10:31:29;23.38;;;4.70;;
30173;SDS011;16985;50.814;8.530;2023-11-19T10:33:57;30.55;;;5.18;;
30173;SDS011;16985;50.814;8.530;2023-11-19T10:36:36;33.83;;;5.00;;
30173;SDS011;16985;50.814;8.530;2023-11-19T10:39:06;22.77;;;3.47;;
30173;SDS011;16985;50.814;8.530;2023-11-19T10:41:34;26.02;;;4.75;;
30173;SDS011;16985;50.814;8.530;2023-11-19T10:44:00;25.33;;;4.95;;
30173;SDS011;16985;50.814;8.530;2023-11-19T10:46:39;25.20;;;4.00;;
30173;SDS011;16985;50.814;8.530;2023-11-19T10:49:07;28.27;;;4.97;;
30173;SDS011;16985;50.814;8.530;2023-11-19T10:51:33;26.27;;;4.47;;
30173;SDS011;16985;50.814;8.530;2023-11-19T10:54:04;24.13;;;4.65;;
30173;SDS011;16985;50.814;8.530;2023-11-19T10:56:31;27.38;;;5.80;;
30173;SDS011;16985;50.814;8.530;2023-11-19T10:58:59;29.33;;;5.25;;
30173;SDS011;16985;50.814;8.530;2023-11-19T11:01:27;26.48;;;4.78;;
30173;SDS011;16985;50.814;8.530;2023-11-19T11:04:05;21.88;;;5.13;;
30173;SDS011;16985;50.814;8.530;2023-11-19T11:06:40;20.13;;;5.00;;
30173;SDS011;16985;50.814;8.530;2023-11-19T11:09:07;22.13;;;4.57;;
30173;SDS011;16985;50.814;8.530;2023-11-19T11:11:39;31.77;;;4.85;;
30173;SDS011;16985;50.814;8.530;2023-11-19T11:14:10;25.20;;;4.78;;
30173;SDS011;16985;50.814;8.530;2023-11-19T11:16:42;24.15;;;4.30;;
30173;SDS011;16985;50.814;8.530;2023-11-19T11:19:10;23.77;;;3.60;;
30173;SDS011;16985;50.814;8.530;2023-11-19T11:21:38;21.75;;;4.80;;
30173;SDS011;16985;50.814;8.530;2023-11-19T11:24:14;25.40;;;4.05;;
30173;SDS011;16985;50.814;8.530;2023-11-19T11:30:39;17.20;;;3.80;;
30173;SDS011;16985;50.814;8.530;2023-11-19T11:38:45;26.30;;;5.65;;
30173;SDS011;16985;50.814;8.530;2023-11-19T11:41:19;26.58;;;4.20;;
30173;SDS011;16985;50.814;8.530;2023-11-19T11:43:51;20.80;;;3.70;;
30173;SDS011;16985;50.814;8.530;2023-11-19T11:49:08;18.65;;;4.45;;
30173;SDS011;16985;50.814;8.530;2023-11-19T11:54:09;22.02;;;4.32;;
30173;SDS011;16985;50.814;8.530;2023-11-19T11:56:58;22.85;;;4.40;;
30173;SDS011;16985;50.814;8.530;2023-11-19T11:59:36;20.63;;;4.53;;
30173;SDS011;16985;50.814;8.530;2023-11-19T12:02:12;28.52;;;4.63;;
30173;SDS011;16985;50.814;8.530;2023-11-19T12:04:42;30.90;;;4.70;;
30173;SDS011;16985;50.814;8.530;2023-11-19T12:07:13;24.20;;;5.00;;
30173;SDS011;16985;50.814;8.530;2023-11-19T12:09:47;23.65;;;4.60;;
30173;SDS011;16985;50.814;8.530;2023-11-19T12:12:26;27.25;;;4.78;;
30173;SDS011;16985;50.814;8.530;2023-11-19T12:20:09;24.35;;;5.03;;
30173;SDS011;16985;50.814;8.530;2023-11-19T12:22:40;24.90;;;6.80;;
30173;SDS011;16985;50.814;8.530;2023-11-19T12:25:08;21.45;;;4.20;;
30173;SDS011;16985;50.814;8.530;2023-11-19T12:27:39;22.80;;;4.47;;
30173;SDS011;16985;50.814;8.530;2023-11-19T12:30:07;20.85;;;5.38;;
30173;SDS011;16985;50.814;8.530;2023-11-19T12:32:41;18.00;;;3.60;;
30173;SDS011;16985;50.814;8.530;2023-11-19T12:35:08;22.67;;;4.55;;
30173;SDS011;16985;50.814;8.530;2023-11-19T12:37:40;26.08;;;4.15;;
30173;SDS011;16985;50.814;8.530;2023-11-19T12:40:17;19.67;;;4.38;;
30173;SDS011;16985;50.814;8.530;2023-11-19T12:42:49;18.35;;;4.07;;
30173;SDS011;16985;50.814;8.530;2023-11-19T12:45:20;21.77;;;4.22;;
30173;SDS011;16985;50.814;8.530;2023-11-19T12:47:49;22.63;;;3.70;;
30173;SDS011;16985;50.814;8.530;2023-11-19T12:50:17;21.40;;;4.30;;
30173;SDS011;16985;50.814;8.530;2023-11-19T12:52:56;23.52;;;5.10;;
30173;SDS011;16985;50.814;8.530;2023-11-19T12:55:29;24.77;;;4.60;;
30173;SDS011;16985;50.814;8.530;2023-11-19T12:57:57;15.27;;;4.07;;
30173;SDS011;16985;50.814;8.530;2023-11-19T13:00:25;27.45;;;4.28;;
30173;SDS011;16985;50.814;8.530;2023-11-19T13:02:52;21.33;;;4.13;;
30173;SDS011;16985;50.814;8.530;2023-11-19T13:05:28;23.90;;;4.68;;
30173;SDS011;16985;50.814;8.530;2023-11-19T13:08:02;36.55;;;5.22;;
30173;SDS011;16985;50.814;8.530;2023-11-19T13:10:30;17.95;;;4.30;;
30173;SDS011;16985;50.814;8.530;2023-11-19T13:13:17;22.33;;;4.20;;
30173;SDS011;16985;50.814;8.530;2023-11-19T13:15:43;15.77;;;3.83;;
30173;SDS011;16985;50.814;8.530;2023-11-19T13:18:10;23.83;;;4.38;;
30173;SDS011;16985;50.814;8.530;2023-11-19T13:20:37;22.52;;;4.47;;
30173;SDS011;16985;50.814;8.530;2023-11-19T13:23:04;16.02;;;3.65;;
30173;SDS011;16985;50.814;8.530;2023-11-19T13:25:34;17.80;;;3.53;;
30173;SDS011;16985;50.814;8.530;2023-11-19T13:28:00;14.95;;;3.28;;
30173;SDS011;16985;50.814;8.530;2023-11-19T13:30:27;18.58;;;3.35;;
30173;SDS011;16985;50.814;8.530;2023-11-19T13:32:54;23.02;;;3.85;;
30173;SDS011;16985;50.814;8.530;2023-11-19T13:35:21;16.23;;;4.30;;
30173;SDS011;16985;50.814;8.530;2023-11-19T13:37:48;17.60;;;4.18;;
30173;SDS011;16985;50.814;8.530;2023-11-19T13:40:14;18.33;;;3.38;;
30173;SDS011;16985;50.814;8.530;2023-11-19T13:42:40;20.38;;;3.10;;
30173;SDS011;16985;50.814;8.530;2023-11-19T13:47:38;15.32;;;3.63;;
30173;SDS011;16985;50.814;8.530;2023-11-19T13:50:07;17.88;;;4.00;;
30173;SDS011;16985;50.814;8.530;2023-11-19T13:52:39;20.45;;;3.85;;
30173;SDS011;16985;50.814;8.530;2023-11-19T13:55:10;17.60;;;3.72;;
30173;SDS011;16985;50.814;8.530;2023-11-19T13:57:38;18.30;;;3.35;;
30173;SDS011;16985;50.814;8.530;2023-11-19T14:00:06;19.60;;;3.53;;
30173;SDS011;16985;50.814;8.530;2023-11-19T14:02:41;17.40;;;2.97;;
30173;SDS011;16985;50.814;8.530;2023-11-19T14:05:08;14.93;;;3.20;;
30173;SDS011;16985;50.814;8.530;2023-11-19T14:07:38;11.32;;;3.10;;
30173;SDS011;16985;50.814;8.530;2023-11-19T14:10:05;17.85;;;2.95;;
30173;SDS011;16985;50.814;8.530;2023-11-19T14:12:34;18.55;;;3.35;;
30173;SDS011;16985;50.814;8.530;2023-11-19T14:15:04;13.73;;;2.92;;
30173;SDS011;16985;50.814;8.530;2023-11-19T14:17:32;22.95;;;3.38;;
30173;SDS011;16985;50.814;8.530;2023-11-19T14:19:59;13.98;;;2.72;;
30173;SDS011;16985;50.814;8.530;2023-11-19T14:22:26;18.80;;;3.85;;
30173;SDS011;16985;50.814;8.530;2023-11-19T14:24:52;12.43;;;3.50;;
30173;SDS011;16985;50.814;8.530;2023-11-19T14:27:18;21.35;;;3.70;;
30173;SDS011;16985;50.814;8.530;2023-11-19T14:29:45;12.63;;;2.67;;
30173;SDS011;16985;50.814;8.530;2023-11-19T14:32:11;17.67;;;4.03;;
30173;SDS011;16985;50.814;8.530;2023-11-19T14:34:38;19.13;;;3.75;;
30173;SDS011;16985;50.814;8.530;2023-11-19T14:37:04;14.00;;;4.57;;
30173;SDS011;16985;50.814;8.530;2023-11-19T14:39:30;17.17;;;3.50;;
30173;SDS011;16985;50.814;8.530;2023-11-19T14:41:57;16.42;;;3.15;;
30173;SDS011;16985;50.814;8.530;2023-11-19T14:44:26;18.52;;;3.55;;
30173;SDS011;16985;50.814;8.530;2023-11-19T14:46:54;16.17;;;3.17;;
30173;SDS011;16985;50.814;8.530;2023-11-19T14:49:21;14.57;;;3.00;;
30173;SDS011;16985;50.814;8.530;2023-11-19T14:51:49;14.05;;;3.75;;
30173;SDS011;16985;50.814;8.530;2023-11-19T14:54:16;15.60;;;2.85;;
30173;SDS011;16985;50.814;8.530;2023-11-19T14:56:45;10.98;;;2.58;;
30173;SDS011;16985;50.814;8.530;2023-11-19T14:59:11;17.75;;;3.13;;
30173;SDS011;16985;50.814;8.530;2023-11-19T15:01:38;20.92;;;3.03;;
30173;SDS011;16985;50.814;8.530;2023-11-19T15:04:06;14.20;;;3.63;;
30173;SDS011;16985;50.814;8.530;2023-11-19T15:06:32;16.08;;;3.40;;
30173;SDS011;16985;50.814;8.530;2023-11-19T15:08:58;14.85;;;3.40;;
30173;SDS011;16985;50.814;8.530;2023-11-19T15:11:26;11.07;;;2.33;;
30173;SDS011;16985;50.814;8.530;2023-11-19T15:13:53;9.27;;;3.15;;